Time;durP1;ratioP1;P1;durP2;ratioP2;P2;SDS_P1;SDS_P2;PMS_P1;PMS_P2;Temp;Humidity;BMP_temperature;BMP_pressure;BME280_temperature;BME280_humidity;BME280_pressure;Samples;Min_cycle;Max_cycle;Signal;HPM_P1;HPM_P2
2022/10/05 00:09:21;;;;;;;1999.90;999.90;;;11.50;99.90;;;;;;6643377;89;20321;-80
2022/10/05 00:19:43;;;;;;;1999.90;999.90;;;11.50;99.90;;;;;;6644526;89;20220;-79
2022/10/05 00:29:44;;;;;;;1999.90;999.90;;;11.10;99.90;;;;;;6638733;89;20667;-79
2022/10/05 00:39:45;;;;;;;1999.90;999.90;;;10.60;99.90;;;;;;6646090;89;20209;-79
2022/10/05 00:50:07;;;;;;;1999.90;999.90;;;10.40;99.90;;;;;;6671315;89;20219;-79
2022/10/05 01:00:14;;;;;;;1999.90;999.90;;;10.50;99.90;;;;;;6645104;89;20197;-79
2022/10/05 01:10:37;;;;;;;1999.90;999.90;;;10.80;99.90;;;;;;6654755;89;20190;-79
2022/10/05 01:21:07;;;;;;;1999.90;999.90;;;10.70;99.90;;;;;;6654200;89;20257;-79
2022/10/05 01:31:15;;;;;;;1999.90;999.90;;;10.40;99.90;;;;;;6640789;89;20176;-80
2022/10/05 01:41:34;;;;;;;1999.90;999.90;;;10.40;99.90;;;;;;6645093;89;20192;-80
2022/10/05 01:52:08;;;;;;;1999.90;999.90;;;10.30;99.90;;;;;;6647634;88;20198;-79
2022/10/05 02:02:18;;;;;;;1999.90;999.90;;;10.30;99.90;;;;;;6644028;89;20243;-79
2022/10/05 02:12:23;;;;;;;1999.90;999.90;;;10.10;99.90;;;;;;6644385;89;20283;-80
2022/10/05 02:22:45;;;;;;;1999.90;999.90;;;10.00;99.90;;;;;;6702905;88;20218;-80
2022/10/05 02:33:01;;;;;;;1999.90;999.90;;;10.10;99.90;;;;;;6644898;89;20712;-80
2022/10/05 02:43:17;;;;;;;1999.90;999.90;;;10.20;99.90;;;;;;6641792;89;20205;-80
2022/10/05 02:53:52;;;;;;;1999.90;999.90;;;10.40;99.90;;;;;;6654725;88;20202;-81
2022/10/05 03:04:11;;;;;;;1999.90;999.90;;;10.40;99.90;;;;;;6657572;89;20185;-81
2022/10/05 03:14:25;;;;;;;1999.90;999.90;;;10.50;99.90;;;;;;6652459;89;20271;-81
2022/10/05 03:24:57;;;;;;;1999.90;999.90;;;10.40;99.90;;;;;;6656613;89;20278;-80
2022/10/05 03:35:20;;;;;;;1999.90;999.90;;;10.30;99.90;;;;;;6653222;88;20185;-80
2022/10/05 03:45:37;;;;;;;1999.90;999.90;;;10.40;99.90;;;;;;6651866;89;20214;-81
2022/10/05 03:55:44;;;;;;;1999.90;999.90;;;10.40;99.90;;;;;;6655068;89;20995;-81
2022/10/05 04:05:58;;;;;;;1999.90;999.90;;;10.50;99.90;;;;;;6658826;88;20178;-80
2022/10/05 04:16:04;;;;;;;1999.90;999.90;;;10.60;99.90;;;;;;6657666;89;20210;-80
2022/10/05 04:26:18;;;;;;;1999.90;999.90;;;10.50;99.90;;;;;;6656307;88;20180;-80
2022/10/05 04:36:28;;;;;;;1999.90;999.90;;;10.20;99.90;;;;;;6660133;88;20201;-79
2022/10/05 04:46:48;;;;;;;1999.90;999.90;;;10.10;99.90;;;;;;6660595;88;20226;-79
2022/10/05 04:57:00;;;;;;;1999.90;999.90;;;10.00;99.90;;;;;;6658723;88;20183;-78
2022/10/05 05:07:24;;;;;;;1999.90;999.90;;;9.90;99.90;;;;;;6658336;88;20197;-80
2022/10/05 05:17:41;;;;;;;1999.90;999.90;;;10.10;99.90;;;;;;6655760;88;20166;-79
2022/10/05 05:27:52;;;;;;;1999.90;999.90;;;10.10;99.90;;;;;;6661619;88;20161;-80
2022/10/05 05:38:13;;;;;;;1999.90;999.90;;;10.20;99.90;;;;;;6659934;88;20760;-79
2022/10/05 05:48:39;;;;;;;1999.90;999.90;;;10.10;99.90;;;;;;6664467;88;20187;-79
2022/10/05 05:58:45;;;;;;;1999.90;999.90;;;9.90;99.90;;;;;;6715528;88;20367;-81
2022/10/05 06:08:56;;;;;;;1999.90;999.90;;;10.00;99.90;;;;;;6697910;88;20175;-81
2022/10/05 06:19:03;;;;;;;1999.90;999.90;;;10.00;99.90;;;;;;6697766;88;20255;-80
2022/10/05 06:29:11;;;;;;;1999.90;999.90;;;10.50;99.90;;;;;;6660660;88;20289;-79
2022/10/05 06:39:25;;;;;;;1999.90;999.90;;;10.90;99.90;;;;;;6663396;88;20179;-79
2022/10/05 06:49:44;;;;;;;1999.90;999.90;;;11.10;99.90;;;;;;6663231;88;20168;-80
2022/10/05 07:00:16;;;;;;;1999.90;999.90;;;11.30;99.90;;;;;;6644237;88;20170;-81
2022/10/05 07:10:30;;;;;;;1999.90;999.90;;;11.50;99.90;;;;;;6644457;88;20620;-81
2022/10/05 07:21:12;;;;;;;1999.90;999.90;;;11.70;99.90;;;;;;6627090;88;20341;-80
2022/10/05 07:31:34;;;;;;;1999.90;999.90;;;11.90;99.90;;;;;;6577454;89;20834;-80
2022/10/05 07:42:06;;;;;;;1999.90;999.90;;;12.20;99.90;;;;;;6646124;88;20220;-80
2022/10/05 07:52:33;;;;;;;1999.90;999.90;;;12.50;99.90;;;;;;6662808;88;21098;-80
2022/10/05 08:02:44;;;;;;;1999.90;999.90;;;12.80;99.90;;;;;;6658924;88;20172;-79
2022/10/05 08:13:06;;;;;;;1999.90;999.90;;;13.20;99.90;;;;;;6658684;88;20169;-81
2022/10/05 08:23:44;;;;;;;1999.90;999.90;;;13.40;99.90;;;;;;6662185;88;20346;-80
2022/10/05 08:34:03;;;;;;;1999.90;999.90;;;13.70;99.90;;;;;;6713268;88;20263;-80
2022/10/05 08:44:41;;;;;;;1999.90;999.90;;;14.10;99.90;;;;;;6662473;88;20192;-80
2022/10/05 08:55:18;;;;;;;1999.90;999.90;;;14.70;99.90;;;;;;6658460;88;20247;-80
2022/10/05 09:05:51;;;;;;;1999.90;999.90;;;15.10;99.90;;;;;;6646158;89;20220;-80
2022/10/05 09:16:26;;;;;;;1999.90;999.90;;;15.40;99.90;;;;;;6644748;89;20185;-80
2022/10/05 09:26:39;;;;;;;1999.90;999.90;;;15.50;99.90;;;;;;6647194;89;20247;-81
2022/10/05 09:37:07;;;;;;;1999.90;999.90;;;16.10;99.90;;;;;;6664762;88;20169;-79
2022/10/05 09:47:23;;;;;;;1999.90;999.90;;;16.70;99.90;;;;;;6650856;89;20196;-80
2022/10/05 09:57:52;;;;;;;1999.90;999.90;;;17.50;99.90;;;;;;6649772;89;20740;-81
2022/10/05 10:08:16;;;;;;;1999.90;999.90;;;18.00;99.90;;;;;;6651846;89;20200;-81
2022/10/05 10:18:44;;;;;;;1999.90;999.90;;;19.20;99.90;;;;;;6652670;89;20205;-81
2022/10/05 10:29:10;;;;;;;1999.90;999.90;;;20.20;99.90;;;;;;6645541;89;20283;-82
2022/10/05 10:39:37;;;;;;;1999.90;999.90;;;19.80;99.90;;;;;;6653458;89;20196;-81
2022/10/05 10:50:22;;;;;;;1999.90;999.90;;;20.10;99.90;;;;;;6652938;89;20212;-82
2022/10/05 11:00:37;;;;;;;1999.90;999.90;;;20.50;99.90;;;;;;6655115;89;20169;-81
2022/10/05 11:10:57;;;;;;;1999.90;999.90;;;20.50;99.90;;;;;;6647503;89;20225;-81
2022/10/05 11:21:25;;;;;;;1999.90;999.90;;;21.10;99.90;;;;;;6652122;89;20330;-82
2022/10/05 11:31:58;;;;;;;1999.90;999.90;;;20.40;99.90;;;;;;6651998;89;20308;-83
2022/10/05 11:42:32;;;;;;;1999.90;999.90;;;20.70;99.90;;;;;;6658113;89;20222;-84
2022/10/05 11:52:39;;;;;;;1999.90;999.90;;;20.80;99.90;;;;;;6649237;89;20201;-82
2022/10/05 12:02:56;;;;;;;1999.90;999.90;;;20.60;99.90;;;;;;6708502;88;20198;-83
2022/10/05 12:13:03;;;;;;;1999.90;999.90;;;20.70;99.90;;;;;;6703734;88;20195;-81
2022/10/05 12:23:18;;;;;;;1999.90;999.90;;;21.60;99.90;;;;;;6660361;88;20201;-81
2022/10/05 12:33:48;;;;;;;1999.90;999.90;;;21.20;99.90;;;;;;6651659;89;20183;-81
2022/10/05 12:44:05;;;;;;;1999.90;999.90;;;21.60;99.90;;;;;;6647332;89;20181;-81
2022/10/05 12:54:34;;;;;;;1999.90;999.90;;;22.20;99.90;;;;;;6653509;89;20173;-81
2022/10/05 13:04:55;;;;;;;1999.90;999.90;;;21.40;99.90;;;;;;6637641;89;20197;-81
2022/10/05 13:15:01;;;;;;;1999.90;999.90;;;21.90;99.90;;;;;;6650611;89;20633;-82
2022/10/05 13:25:20;;;;;;;1999.90;999.90;;;21.80;99.90;;;;;;6650950;89;20215;-80
2022/10/05 13:35:43;;;;;;;1999.90;999.90;;;21.00;99.90;;;;;;6653290;89;20196;-81
2022/10/05 13:45:53;;;;;;;1999.90;999.90;;;21.40;99.90;;;;;;6665540;88;20200;-81
2022/10/05 13:56:21;;;;;;;1999.90;999.90;;;21.20;99.90;;;;;;6654148;88;20847;-80
2022/10/05 14:06:28;;;;;;;1999.90;999.90;;;21.30;99.90;;;;;;6648140;89;20192;-80
2022/10/05 14:16:32;;;;;;;1999.90;999.90;;;21.70;99.90;;;;;;6648648;89;20294;-80
2022/10/05 14:26:34;;;;;;;1999.90;999.90;;;21.40;99.90;;;;;;6655103;89;20207;-80
2022/10/05 14:36:39;;;;;;;1999.90;999.90;;;22.00;99.90;;;;;;6647839;88;20180;-81
2022/10/05 14:46:53;;;;;;;1999.90;999.90;;;22.00;99.90;;;;;;6657711;88;20834;-81
2022/10/05 14:57:36;;;;;;;1999.90;999.90;;;21.70;99.90;;;;;;6669441;77;20253;-79
2022/10/05 15:07:42;;;;;;;1999.90;999.90;;;21.40;99.90;;;;;;6657108;89;20209;-79
2022/10/05 15:17:51;;;;;;;1999.90;999.90;;;21.60;99.90;;;;;;6640627;89;20590;-80
2022/10/05 15:28:05;;;;;;;1999.90;999.90;;;21.60;99.90;;;;;;6642405;89;20659;-80
2022/10/05 15:38:08;;;;;;;1999.90;999.90;;;21.70;99.90;;;;;;6644015;89;20197;-80
2022/10/05 15:48:27;;;;;;;1999.90;999.90;;;21.90;99.90;;;;;;6646131;88;20165;-81
2022/10/05 15:58:43;;;;;;;1999.90;999.90;;;21.90;99.90;;;;;;6645348;89;20363;-80
2022/10/05 16:09:01;;;;;;;1999.90;999.90;;;21.90;99.90;;;;;;6646524;88;20659;-79
2022/10/05 16:19:14;;;;;;;1999.90;999.90;;;22.10;99.90;;;;;;6654964;88;20311;-80
2022/10/05 16:29:31;;;;;;;1999.90;999.90;;;21.60;99.90;;;;;;6647296;88;20196;-81
2022/10/05 16:39:58;;;;;;;1999.90;999.90;;;21.10;99.90;;;;;;6658315;88;20699;-80
2022/10/05 16:50:21;;;;;;;1999.90;999.90;;;20.80;99.90;;;;;;6655557;88;20189;-79
2022/10/05 17:00:26;;;;;;;1999.90;999.90;;;20.50;99.90;;;;;;6641381;89;20201;-80
2022/10/05 17:10:40;;;;;;;1999.90;999.90;;;20.30;99.90;;;;;;6643719;89;20193;-78
2022/10/05 17:20:56;;;;;;;1999.90;999.90;;;20.10;99.90;;;;;;6652927;89;20204;-79
2022/10/05 17:31:15;;;;;;;1999.90;999.90;;;19.80;99.90;;;;;;6656842;89;20171;-79
2022/10/05 17:41:21;;;;;;;1999.90;999.90;;;19.50;99.90;;;;;;6658879;89;20184;-79
2022/10/05 18:02:20;;;;;;;1999.90;999.90;;;18.90;99.90;;;;;;6640953;89;20196;-79
2022/10/05 18:12:23;;;;;;;1999.90;999.90;;;19.10;99.90;;;;;;6635971;89;20685;-79
2022/10/05 18:22:29;;;;;;;1999.90;999.90;;;19.20;99.90;;;;;;6641432;88;20178;-79
2022/10/05 18:33:02;;;;;;;1999.90;999.90;;;18.80;99.90;;;;;;6649443;89;20821;-80
2022/10/05 18:43:17;;;;;;;1999.90;999.90;;;19.00;99.90;;;;;;6639369;89;20598;-80
2022/10/05 18:53:46;;;;;;;1999.90;999.90;;;19.20;99.90;;;;;;6646345;89;20229;-81
2022/10/05 19:03:55;;;;;;;1999.90;999.90;;;19.20;99.90;;;;;;6640834;89;20292;-81
2022/10/05 19:14:04;;;;;;;1999.90;999.90;;;18.90;99.90;;;;;;6648418;89;20673;-80
2022/10/05 19:24:33;;;;;;;1999.90;999.90;;;18.80;99.90;;;;;;6644390;89;20185;-80
2022/10/05 19:35:02;;;;;;;1999.90;999.90;;;18.60;99.90;;;;;;6639488;88;20217;-81
2022/10/05 19:45:25;;;;;;;1999.90;999.90;;;18.40;99.90;;;;;;6639637;89;20506;-81
2022/10/05 19:55:40;;;;;;;1999.90;999.90;;;18.30;99.90;;;;;;6641713;89;20675;-80
2022/10/05 20:05:41;;;;;;;1999.90;999.90;;;18.30;99.90;;;;;;6641968;89;20219;-80
2022/10/05 20:27:05;;;;;;;1999.90;999.90;;;18.00;99.90;;;;;;6642160;89;20219;-80
2022/10/05 20:37:06;;;;;;;1999.90;999.90;;;18.10;99.90;;;;;;6642931;89;20380;-80
2022/10/05 20:47:08;;;;;;;1999.90;999.90;;;18.00;99.90;;;;;;6643418;89;20218;-79
2022/10/05 20:57:09;;;;;;;1999.90;999.90;;;18.00;99.90;;;;;;6644442;89;20183;-80
2022/10/05 21:07:11;;;;;;;1999.90;999.90;;;17.90;99.90;;;;;;6644663;89;20737;-80
2022/10/05 21:17:13;;;;;;;1999.90;999.90;;;17.90;99.90;;;;;;6649422;89;20247;-79
2022/10/05 21:27:34;;;;;;;1999.90;999.90;;;17.80;99.90;;;;;;6623078;78;20225;-82
2022/10/05 21:37:34;;;;;;;1999.90;999.90;;;17.70;99.90;;;;;;6675230;88;20726;-81
2022/10/05 21:47:35;;;;;;;1999.90;999.90;;;17.80;99.90;;;;;;6673716;89;20290;-81
2022/10/05 21:57:37;;;;;;;1999.90;999.90;;;17.70;99.90;;;;;;6674554;89;20258;-83
2022/10/05 22:07:38;;;;;;;1999.90;999.90;;;17.80;99.90;;;;;;6674106;89;20534;-81
2022/10/05 22:17:41;;;;;;;1999.90;999.90;;;17.60;99.90;;;;;;6671976;89;20620;-81
2022/10/05 22:27:41;;;;;;;1999.90;999.90;;;17.70;99.90;;;;;;6654632;88;20526;-82
2022/10/05 22:37:42;;;;;;;1999.90;999.90;;;17.80;99.90;;;;;;6658257;88;20172;-82
2022/10/05 22:47:42;;;;;;;1999.90;999.90;;;17.90;99.90;;;;;;6661955;88;20184;-83
2022/10/05 22:57:43;;;;;;;1999.90;999.90;;;18.00;99.90;;;;;;6657600;88;20181;-82
2022/10/05 23:07:47;;;;;;;1999.90;999.90;;;17.70;99.90;;;;;;6660031;88;20221;-82
2022/10/05 23:17:48;;;;;;;1999.90;999.90;;;17.00;99.90;;;;;;6658111;88;20307;-82
2022/10/05 23:27:49;;;;;;;1999.90;999.90;;;16.50;99.90;;;;;;6655365;89;20628;-81
2022/10/05 23:37:49;;;;;;;1999.90;999.90;;;16.50;99.90;;;;;;6658267;89;20204;-83
2022/10/05 23:47:50;;;;;;;1999.90;999.90;;;16.30;99.90;;;;;;6660162;88;20165;-82
2022/10/05 23:57:50;;;;;;;1999.90;999.90;;;16.30;99.90;;;;;;6656733;88;20199;-82
